X  Tanca Dades meteorològiques de l'aviació METAR     LEVC Valencia Airport
Temperatura
24°C Temperatura
13°C Rosada
50% Humitat



Vent
8 KM/H
5 MPH
2 M/S
4 NUS



150°
SSE
Condicions actuals

Sense núvols Sense núvols
Pressió 1011.92 (hPa) - 29.88 (inHg)
Visibilitat 6.2 (milla) - 10 (km)
Aeroport
Codi aeroport LEVC

Ubicació: Valencia Airport
Distància: 60 (km)

Metar:
LEVC 162330Z 15004KT CAVOK 24/13 Q1012 NOSIG

Temps: 17-05-2021 01:30 CEST